createdAt,value
2023-05-10T00:01:05.063Z,31.08
2023-05-10T00:06:09.952Z,30.04
2023-05-10T00:11:15.100Z,30.76
2023-05-10T00:16:20.102Z,29.72
2023-05-10T00:21:25.153Z,29.21
2023-05-10T00:26:30.028Z,29.83
2023-05-10T00:31:35.927Z,30.21
2023-05-10T00:36:41.028Z,29.86
2023-05-10T00:41:45.963Z,29.47
2023-05-10T00:46:52.228Z,29.62
2023-05-10T00:51:57.522Z,29.43
2023-05-10T00:57:02.546Z,29.40
2023-05-10T01:02:08.967Z,28.88
2023-05-10T01:07:14.031Z,28.40
2023-05-10T01:12:19.125Z,28.46
2023-05-10T01:17:25.790Z,28.40
2023-05-10T01:22:52.648Z,29.11
2023-05-10T01:28:29.753Z,29.04
2023-05-10T01:34:14.322Z,28.85
2023-05-10T01:39:39.240Z,27.92
2023-05-10T01:44:59.774Z,28.88
2023-05-10T01:50:07.733Z,27.45
2023-05-10T01:55:17.459Z,28.61
2023-05-10T02:00:24.191Z,28.03
2023-05-10T02:05:31.558Z,28.52
2023-05-10T02:10:42.031Z,28.95
2023-05-10T02:15:51.607Z,28.63
2023-05-10T02:20:58.311Z,27.57
2023-05-10T02:26:05.215Z,28.18
2023-05-10T02:31:13.537Z,27.66
2023-05-10T02:36:18.112Z,26.95
2023-05-10T02:41:27.241Z,27.98
2023-05-10T02:46:33.498Z,27.18
2023-05-10T02:51:44.825Z,28.39
2023-05-10T02:56:57.514Z,28.31
2023-05-10T03:02:04.416Z,27.91
2023-05-10T03:07:11.156Z,25.93
2023-05-10T03:12:19.746Z,28.34
2023-05-10T03:17:43.970Z,28.59
2023-05-10T03:22:56.114Z,27.83
2023-05-10T03:28:05.510Z,27.81
2023-05-10T03:33:13.062Z,27.44
2023-05-10T03:38:21.846Z,27.94
2023-05-10T03:43:27.404Z,27.79
2023-05-10T03:48:33.864Z,27.17
2023-05-10T03:53:39.213Z,28.23
2023-05-10T03:58:45.110Z,28.22
2023-05-10T04:03:50.797Z,27.84
2023-05-10T04:08:57.510Z,27.56
2023-05-10T04:14:03.155Z,26.79
2023-05-10T04:19:09.335Z,26.35
2023-05-10T04:24:15.504Z,26.08
2023-05-10T04:29:20.641Z,26.77
2023-05-10T04:34:25.822Z,26.44
2023-05-10T04:39:31.413Z,23.88
2023-05-10T04:44:37.878Z,26.25
2023-05-10T04:49:43.986Z,25.31
2023-05-10T04:54:49.655Z,25.28
2023-05-10T04:59:59.440Z,25.12
2023-05-10T05:05:05.011Z,25.52
2023-05-10T05:10:11.299Z,25.27
2023-05-10T05:15:18.952Z,23.44
2023-05-10T05:20:25.572Z,24.84
2023-05-10T05:25:31.257Z,25.04
2023-05-10T05:30:36.699Z,26.31
2023-05-10T05:35:42.362Z,23.57
2023-05-10T05:40:48.969Z,25.54
2023-05-10T05:45:56.259Z,25.00
2023-05-10T05:51:01.907Z,23.72
2023-05-10T05:56:08.256Z,24.74
2023-05-10T06:01:13.533Z,25.08
2023-05-10T06:06:19.058Z,24.54
2023-05-10T06:11:23.939Z,25.00
2023-05-10T06:16:29.658Z,24.99
2023-05-10T06:21:34.942Z,23.87
2023-05-10T06:26:40.448Z,24.31
2023-05-10T06:31:45.997Z,23.94
2023-05-10T06:36:51.790Z,23.24
2023-05-10T06:41:57.211Z,23.23
2023-05-10T06:47:07.023Z,23.00
2023-05-10T06:52:12.549Z,21.73
2023-05-10T06:57:30.628Z,23.70
2023-05-10T07:02:37.426Z,23.02
2023-05-10T07:07:42.848Z,22.90
2023-05-10T07:12:48.623Z,23.20
2023-05-10T07:17:54.394Z,24.53
2023-05-10T07:22:59.686Z,24.03
2023-05-10T07:28:05.170Z,23.17
2023-05-10T07:33:11.910Z,22.58
2023-05-10T07:38:17.279Z,22.48
2023-05-10T07:43:22.751Z,23.29
2023-05-10T07:48:28.868Z,23.16
2023-05-10T07:53:34.257Z,23.13
2023-05-10T07:58:39.667Z,22.82
2023-05-10T08:03:45.096Z,22.82
2023-05-10T08:08:52.645Z,22.92
2023-05-10T08:13:58.152Z,23.25
2023-05-10T08:19:03.581Z,23.59
2023-05-10T08:24:09.229Z,23.03
2023-05-10T08:29:14.717Z,23.05
2023-05-10T08:34:20.052Z,22.86
2023-05-10T08:39:30.346Z,22.00
2023-05-10T08:44:39.057Z,23.60
2023-05-10T08:49:46.341Z,22.73
2023-05-10T08:54:51.994Z,21.67
2023-05-10T08:59:57.415Z,23.28
2023-05-10T09:05:03.641Z,22.33
2023-05-10T09:10:11.082Z,22.09
2023-05-10T09:15:18.128Z,22.98
2023-05-10T09:20:24.954Z,23.01
2023-05-10T09:25:30.508Z,23.10
2023-05-10T09:30:36.432Z,22.86
2023-05-10T09:35:42.363Z,22.75
2023-05-10T09:41:00.120Z,23.94
2023-05-10T09:46:13.691Z,23.81
2023-05-10T09:51:27.354Z,24.20
2023-05-10T09:56:42.250Z,24.27
2023-05-10T10:01:53.701Z,24.16
2023-05-10T10:07:06.695Z,23.46
2023-05-10T10:12:11.892Z,23.84
2023-05-10T10:17:17.790Z,24.32
2023-05-10T10:22:22.855Z,24.02
2023-05-10T10:27:45.900Z,24.88
2023-05-10T10:33:16.599Z,24.99
2023-05-10T10:39:01.924Z,25.61
2023-05-10T10:44:24.924Z,25.74
2023-05-10T10:49:30.903Z,26.22
2023-05-10T10:54:36.025Z,26.00
2023-05-10T10:59:48.556Z,25.44
2023-05-10T11:04:53.713Z,26.44
2023-05-10T11:10:06.487Z,26.21
2023-05-10T11:15:12.721Z,26.54
2023-05-10T11:20:26.153Z,27.42
2023-05-10T11:25:30.996Z,27.14
2023-05-10T11:30:37.043Z,26.72
2023-05-10T11:35:43.686Z,26.77
2023-05-10T11:40:49.795Z,27.36
2023-05-10T11:45:55.855Z,26.60
2023-05-10T11:51:01.402Z,26.73
2023-05-10T11:56:08.481Z,27.21
2023-05-10T12:01:14.053Z,27.73
2023-05-10T12:06:19.985Z,27.75
2023-05-10T12:11:29.417Z,28.29
2023-05-10T12:16:36.286Z,27.80
2023-05-10T12:21:41.334Z,28.37
2023-05-10T12:32:08.471Z,28.70
2023-05-10T12:37:13.561Z,29.77
2023-05-10T12:42:19.194Z,29.23
2023-05-10T12:47:24.150Z,29.66
2023-05-10T12:52:29.214Z,29.71
2023-05-10T12:57:34.175Z,29.76
2023-05-10T13:02:39.115Z,30.59
2023-05-10T13:07:46.187Z,31.33
2023-05-10T13:12:51.325Z,29.98
2023-05-10T13:17:56.952Z,29.97
2023-05-10T13:23:02.865Z,30.25
2023-05-10T13:28:08.052Z,30.32
2023-05-10T13:33:12.981Z,30.81
2023-05-10T13:38:18.364Z,30.46
2023-05-10T13:43:24.377Z,30.27
2023-05-10T13:48:30.074Z,31.41
2023-05-10T13:53:35.464Z,31.53
2023-05-10T13:58:40.472Z,31.24
2023-05-10T14:03:51.540Z,31.89
2023-05-10T14:08:56.542Z,31.98
2023-05-10T14:14:01.829Z,32.38
2023-05-10T14:19:07.245Z,31.98
2023-05-10T14:24:12.531Z,32.07
2023-05-10T14:29:17.779Z,32.05
2023-05-10T14:34:22.953Z,32.71
2023-05-10T14:39:31.852Z,32.34
2023-05-10T14:44:36.752Z,32.48
2023-05-10T14:49:41.734Z,32.84
2023-05-10T14:54:46.774Z,33.11
2023-05-10T14:59:51.873Z,33.08
2023-05-10T15:04:57.499Z,32.72
2023-05-10T15:10:04.096Z,33.08
2023-05-10T15:15:09.878Z,33.19
2023-05-10T15:20:14.396Z,33.16
2023-05-10T15:25:21.169Z,33.07
2023-05-10T15:30:26.481Z,34.14
2023-05-10T15:35:31.317Z,34.52
2023-05-10T15:40:36.380Z,34.28
2023-05-10T15:45:41.295Z,35.33
2023-05-10T15:50:46.284Z,35.25
2023-05-10T15:55:51.603Z,34.96
2023-05-10T16:00:56.836Z,35.71
2023-05-10T16:06:01.386Z,35.59
2023-05-10T16:11:06.614Z,35.82
2023-05-10T16:16:11.517Z,35.68
2023-05-10T16:21:16.910Z,35.87
2023-05-10T16:26:23.126Z,35.61
2023-05-10T16:31:28.162Z,35.09
2023-05-10T16:36:34.030Z,36.41
2023-05-10T16:41:39.053Z,35.40
2023-05-10T16:46:44.969Z,34.78
2023-05-10T16:51:49.801Z,34.74
2023-05-10T16:56:54.653Z,34.37
2023-05-10T17:01:59.695Z,34.74
2023-05-10T17:07:04.960Z,34.65
2023-05-10T17:12:09.752Z,34.71
2023-05-10T17:17:14.976Z,34.12
2023-05-10T17:22:19.929Z,33.81
2023-05-10T17:27:25.015Z,34.21
2023-05-10T17:32:29.768Z,34.47
2023-05-10T17:37:35.033Z,34.97
2023-05-10T17:42:39.958Z,34.63
2023-05-10T17:47:45.110Z,34.64
2023-05-10T17:52:49.955Z,34.63
2023-05-10T17:57:54.693Z,34.90
2023-05-10T18:02:59.659Z,35.27
2023-05-10T18:08:05.523Z,35.57
2023-05-10T18:13:10.574Z,35.57
2023-05-10T18:18:15.378Z,35.24
2023-05-10T18:23:21.006Z,35.67
2023-05-10T18:28:26.009Z,35.94
2023-05-10T18:33:30.933Z,35.75
2023-05-10T18:38:35.806Z,36.48
2023-05-10T18:43:40.818Z,36.58
2023-05-10T18:48:45.715Z,36.22
2023-05-10T18:53:51.128Z,37.92
2023-05-10T18:58:56.006Z,36.57
2023-05-10T19:04:01.201Z,37.21
2023-05-10T19:09:06.274Z,37.29
2023-05-10T19:14:11.657Z,38.37
2023-05-10T19:19:16.560Z,37.23
2023-05-10T19:24:25.942Z,37.47
2023-05-10T19:29:31.179Z,37.05
2023-05-10T19:34:36.148Z,37.03
2023-05-10T19:39:41.065Z,37.73
2023-05-10T19:44:46.173Z,38.30
2023-05-10T19:49:50.932Z,37.40
2023-05-10T19:54:55.745Z,37.31
2023-05-10T20:00:00.697Z,37.80
2023-05-10T20:05:06.008Z,37.97
2023-05-10T20:10:10.888Z,35.74
2023-05-10T20:15:16.237Z,38.79
2023-05-10T20:20:22.140Z,37.51
2023-05-10T20:25:27.279Z,38.19
2023-05-10T20:30:32.193Z,38.02
2023-05-10T20:35:37.575Z,38.82
2023-05-10T20:40:42.729Z,38.79
2023-05-10T20:45:47.863Z,39.20
2023-05-10T20:50:52.991Z,38.71
2023-05-10T20:55:58.014Z,39.84
2023-05-10T21:01:02.743Z,37.72
2023-05-10T21:06:07.929Z,39.93
2023-05-10T21:11:12.772Z,39.63
2023-05-10T21:16:18.125Z,39.40
2023-05-10T21:21:24.642Z,41.04
2023-05-10T21:26:30.027Z,39.99
2023-05-10T21:31:35.333Z,40.51
2023-05-10T21:36:40.413Z,40.33
2023-05-10T21:41:45.388Z,40.21
2023-05-10T21:46:50.328Z,40.92
2023-05-10T21:51:55.354Z,40.83
2023-05-10T21:57:00.347Z,39.87
2023-05-10T22:02:05.366Z,40.23
2023-05-10T22:07:10.238Z,41.10
2023-05-10T22:12:16.206Z,40.34
2023-05-10T22:17:21.118Z,39.92
2023-05-10T22:22:26.052Z,40.23
2023-05-10T22:27:31.018Z,39.52
2023-05-10T22:32:35.385Z,39.77
2023-05-10T22:37:40.295Z,39.61
2023-05-10T22:42:45.266Z,39.31
2023-05-10T22:47:50.191Z,39.27
2023-05-10T22:52:55.175Z,39.57
2023-05-10T22:58:00.203Z,38.69
2023-05-10T23:03:05.422Z,39.34
2023-05-10T23:08:10.392Z,39.16
2023-05-10T23:13:15.966Z,38.65
2023-05-10T23:18:20.916Z,38.29
2023-05-10T23:23:25.722Z,38.64
2023-05-10T23:28:30.747Z,38.21
2023-05-10T23:33:35.824Z,38.71
2023-05-10T23:38:41.093Z,38.04
2023-05-10T23:43:47.675Z,38.48
2023-05-10T23:48:52.698Z,38.60
2023-05-10T23:53:57.654Z,38.40
2023-05-10T23:59:04.026Z,38.42
